Time;durP1;ratioP1;P1;durP2;ratioP2;P2;SDS_P1;SDS_P2;PMS_P1;PMS_P2;Temp;Humidity;BMP_temperature;BMP_pressure;BME280_temperature;BME280_humidity;BME280_pressure;Samples;Min_cycle;Max_cycle;Signal;HPM_P1;HPM_P2
2021/11/05 00:02:02;;;;;;;;;;;6.40;99.90;;;;;;5031001;28;19929;-76
2021/11/05 00:04:28;;;;;;;;;;;6.40;99.90;;;;;;5035404;28;19914;-76
2021/11/05 00:06:54;;;;;;;;;;;6.50;99.90;;;;;;5030266;28;19920;-76
2021/11/05 00:09:19;;;;;;;;;;;6.60;99.90;;;;;;5033275;28;20333;-76
2021/11/05 00:11:45;;;;;;;;;;;6.60;99.90;;;;;;5030743;28;19917;-76
2021/11/05 00:14:10;;;;;;;;;;;6.50;99.90;;;;;;5041886;28;20457;-76
2021/11/05 00:16:36;;;;;;;;;;;6.60;99.90;;;;;;5045708;28;20355;-76
2021/11/05 00:19:02;;;;;;;;;;;6.60;99.90;;;;;;5033415;28;19927;-76
2021/11/05 00:21:27;;;;;;;;;;;6.50;99.90;;;;;;5030348;28;19918;-76
2021/11/05 00:23:53;;;;;;;;;;;6.50;99.90;;;;;;5032161;28;20317;-76
2021/11/05 00:26:18;;;;;;;;;;;6.50;99.90;;;;;;5048193;28;19921;-76
2021/11/05 00:28:44;;;;;;;;;;;6.50;99.90;;;;;;5033647;28;19919;-76
2021/11/05 00:31:10;;;;;;;;;;;6.50;99.90;;;;;;5034059;28;19921;-76
2021/11/05 00:33:36;;;;;;;;;;;6.40;99.90;;;;;;5034958;28;20707;-77
2021/11/05 00:36:01;;;;;;;;;;;6.40;99.90;;;;;;5035416;28;19921;-76
2021/11/05 00:38:27;;;;;;;;;;;6.40;99.90;;;;;;5031396;28;19913;-75
2021/11/05 00:40:52;;;;;;;;;;;6.40;99.90;;;;;;5031603;28;19916;-76
2021/11/05 00:43:18;;;;;;;;;;;6.40;99.90;;;;;;5034973;28;19948;-76
2021/11/05 00:45:44;;;;;;;;;;;6.40;99.90;;;;;;5032926;28;19917;-76
2021/11/05 00:48:10;;;;;;;;;;;6.40;99.90;;;;;;5032637;28;19913;-76
2021/11/05 00:50:35;;;;;;;;;;;6.40;99.90;;;;;;5040829;28;19921;-76
2021/11/05 00:53:01;;;;;;;;;;;6.40;99.90;;;;;;5032505;28;19921;-76
2021/11/05 00:55:27;;;;;;;;;;;6.30;99.90;;;;;;5029077;28;19968;-76
2021/11/05 00:57:53;;;;;;;;;;;6.30;99.90;;;;;;5028958;28;20304;-76
2021/11/05 01:00:19;;;;;;;;;;;6.30;99.90;;;;;;5031864;28;19922;-76
2021/11/05 01:02:45;;;;;;;;;;;6.30;99.90;;;;;;5033039;28;19920;-76
2021/11/05 01:05:12;;;;;;;;;;;6.20;99.90;;;;;;5031274;28;20243;-76
2021/11/05 01:07:37;;;;;;;;;;;6.20;99.90;;;;;;5032866;28;19917;-75
2021/11/05 01:10:03;;;;;;;;;;;6.20;99.90;;;;;;5031599;28;19913;-75
2021/11/05 01:12:29;;;;;;;;;;;6.10;99.90;;;;;;5028531;28;20398;-76
2021/11/05 01:14:54;;;;;;;;;;;6.10;99.90;;;;;;5048346;28;19945;-75
2021/11/05 01:17:20;;;;;;;;;;;6.10;99.90;;;;;;5032030;28;19913;-76
2021/11/05 01:19:46;;;;;;;;;;;6.00;99.90;;;;;;5033210;28;20335;-75
2021/11/05 01:22:11;;;;;;;;;;;6.00;99.90;;;;;;5048608;28;19928;-76
2021/11/05 01:24:38;;;;;;;;;;;6.00;99.90;;;;;;5033745;28;19952;-76
2021/11/05 01:27:04;;;;;;;;;;;6.00;99.90;;;;;;5029961;28;20051;-76
2021/11/05 01:29:29;;;;;;;;;;;6.00;99.90;;;;;;5032658;28;20004;-75
2021/11/05 01:31:56;;;;;;;;;;;6.00;99.90;;;;;;5030761;28;19917;-75
2021/11/05 01:34:22;;;;;;;;;;;5.90;99.90;;;;;;5033443;28;20206;-75
2021/11/05 01:36:47;;;;;;;;;;;5.90;99.90;;;;;;5045796;28;20051;-76
2021/11/05 01:39:16;;;;;;;;;;;5.90;99.90;;;;;;5033360;28;19913;-75
2021/11/05 01:41:41;;;;;;;;;;;5.80;99.90;;;;;;5032670;28;20016;-75
2021/11/05 01:44:07;;;;;;;;;;;5.80;99.90;;;;;;5030874;28;19940;-75
2021/11/05 01:46:33;;;;;;;;;;;5.90;99.90;;;;;;5026534;28;20338;-75
2021/11/05 01:48:59;;;;;;;;;;;5.90;99.90;;;;;;5033872;28;19917;-76
2021/11/05 01:51:24;;;;;;;;;;;5.90;99.90;;;;;;5030489;28;19913;-75
2021/11/05 01:53:50;;;;;;;;;;;5.90;99.90;;;;;;5049572;28;19920;-75
2021/11/05 01:56:16;;;;;;;;;;;6.00;99.90;;;;;;5042590;28;19956;-76
2021/11/05 01:58:42;;;;;;;;;;;6.00;99.90;;;;;;5031668;28;20358;-76
2021/11/05 02:01:08;;;;;;;;;;;6.00;99.90;;;;;;5025303;28;19925;-76
2021/11/05 02:03:33;;;;;;;;;;;6.00;99.90;;;;;;5030715;28;19971;-75
2021/11/05 02:06:00;;;;;;;;;;;6.10;99.90;;;;;;5024069;28;19914;-76
2021/11/05 02:08:26;;;;;;;;;;;6.20;99.90;;;;;;5031108;28;19913;-75
2021/11/05 02:10:52;;;;;;;;;;;6.30;99.90;;;;;;5033411;28;19928;-76
2021/11/05 02:13:19;;;;;;;;;;;6.40;99.90;;;;;;5031918;28;20289;-76
2021/11/05 02:15:45;;;;;;;;;;;6.40;99.90;;;;;;5033668;28;20300;-76
2021/11/05 02:18:11;;;;;;;;;;;6.40;99.90;;;;;;5031457;28;19921;-75
2021/11/05 02:20:37;;;;;;;;;;;6.40;99.90;;;;;;5029463;28;19925;-76
2021/11/05 02:23:04;;;;;;;;;;;6.40;99.90;;;;;;5030296;28;19917;-76
2021/11/05 02:25:30;;;;;;;;;;;6.30;99.90;;;;;;5035153;28;19917;-76
2021/11/05 02:27:55;;;;;;;;;;;6.30;99.90;;;;;;5032501;28;19921;-76
2021/11/05 02:30:21;;;;;;;;;;;6.30;99.90;;;;;;5036321;28;19917;-76
2021/11/05 02:32:47;;;;;;;;;;;6.20;99.90;;;;;;5051666;28;19939;-76
2021/11/05 02:35:13;;;;;;;;;;;6.10;99.90;;;;;;5036080;28;20415;-75
2021/11/05 02:37:41;;;;;;;;;;;6.00;99.90;;;;;;5036639;28;19925;-75
2021/11/05 02:40:07;;;;;;;;;;;6.00;99.90;;;;;;5035359;28;20315;-76
2021/11/05 02:42:33;;;;;;;;;;;5.90;99.90;;;;;;5037464;28;19913;-76
2021/11/05 02:44:59;;;;;;;;;;;5.80;99.90;;;;;;5050879;28;20430;-76
2021/11/05 02:47:26;;;;;;;;;;;5.80;99.90;;;;;;5036785;28;19956;-76
2021/11/05 02:49:53;;;;;;;;;;;5.80;99.90;;;;;;5034285;28;19921;-76
2021/11/05 02:52:18;;;;;;;;;;;5.80;99.90;;;;;;5035146;28;19913;-76
2021/11/05 02:54:44;;;;;;;;;;;5.80;99.90;;;;;;5036477;28;20055;-76
2021/11/05 02:57:10;;;;;;;;;;;5.70;99.90;;;;;;5034967;28;19924;-76
2021/11/05 02:59:36;;;;;;;;;;;5.70;99.90;;;;;;5035477;28;19917;-76
2021/11/05 03:02:02;;;;;;;;;;;5.60;99.90;;;;;;5035990;28;19952;-76
2021/11/05 03:04:28;;;;;;;;;;;5.60;99.90;;;;;;5043874;28;20386;-76
2021/11/05 03:06:57;;;;;;;;;;;5.60;99.90;;;;;;5034398;28;19913;-76
2021/11/05 03:09:23;;;;;;;;;;;5.60;99.90;;;;;;5032142;28;19935;-76
2021/11/05 03:11:48;;;;;;;;;;;5.60;99.90;;;;;;5033188;28;20304;-76
2021/11/05 03:14:14;;;;;;;;;;;5.50;99.90;;;;;;5035400;28;20261;-75
2021/11/05 03:16:40;;;;;;;;;;;5.50;99.90;;;;;;5030363;28;19917;-76
2021/11/05 03:19:07;;;;;;;;;;;5.60;99.90;;;;;;5035146;28;19917;-75
2021/11/05 03:21:33;;;;;;;;;;;5.50;99.90;;;;;;5042925;28;19917;-75
2021/11/05 03:23:58;;;;;;;;;;;5.50;99.90;;;;;;5036234;28;19999;-76
2021/11/05 03:26:25;;;;;;;;;;;5.50;99.90;;;;;;5035068;28;20267;-76
2021/11/05 03:28:51;;;;;;;;;;;5.40;99.90;;;;;;5033613;28;19952;-76
2021/11/05 03:31:17;;;;;;;;;;;5.40;99.90;;;;;;5034873;28;19955;-76
2021/11/05 03:33:42;;;;;;;;;;;5.40;99.90;;;;;;5051112;28;20527;-76
2021/11/05 03:36:08;;;;;;;;;;;5.40;99.90;;;;;;5034287;28;19917;-76
2021/11/05 03:38:34;;;;;;;;;;;5.40;99.90;;;;;;5059186;28;19917;-76
2021/11/05 03:40:59;;;;;;;;;;;5.50;99.90;;;;;;5033293;28;19921;-76
2021/11/05 03:43:25;;;;;;;;;;;5.50;99.90;;;;;;5033881;28;19921;-75
2021/11/05 03:45:50;;;;;;;;;;;5.40;99.90;;;;;;5031352;28;19956;-76
2021/11/05 03:48:16;;;;;;;;;;;5.40;99.90;;;;;;5032731;28;20370;-76
2021/11/05 03:50:43;;;;;;;;;;;5.40;99.90;;;;;;5050167;28;20292;-76
2021/11/05 03:53:08;;;;;;;;;;;5.40;99.90;;;;;;5035802;28;19920;-76
2021/11/05 03:55:34;;;;;;;;;;;5.40;99.90;;;;;;5036137;28;19914;-76
2021/11/05 03:57:59;;;;;;;;;;;5.40;99.90;;;;;;5032484;28;20012;-76
2021/11/05 04:00:25;;;;;;;;;;;5.40;99.90;;;;;;5031634;28;19963;-76
2021/11/05 04:02:50;;;;;;;;;;;5.40;99.90;;;;;;5032368;28;20520;-76
2021/11/05 04:05:16;;;;;;;;;;;5.40;99.90;;;;;;5034201;28;19921;-76
2021/11/05 04:07:42;;;;;;;;;;;5.40;99.90;;;;;;5035798;28;20051;-76
2021/11/05 04:10:08;;;;;;;;;;;5.40;99.90;;;;;;5035360;28;19913;-77
2021/11/05 04:12:34;;;;;;;;;;;5.40;99.90;;;;;;5031694;28;20011;-76
2021/11/05 04:14:59;;;;;;;;;;;5.40;99.90;;;;;;5033859;28;20062;-76
2021/11/05 04:17:25;;;;;;;;;;;5.40;99.90;;;;;;5030145;28;19939;-75
2021/11/05 04:19:50;;;;;;;;;;;5.40;99.90;;;;;;5035482;28;19974;-76
2021/11/05 04:22:16;;;;;;;;;;;5.40;99.90;;;;;;5049319;28;20007;-75
2021/11/05 04:24:42;;;;;;;;;;;5.50;99.90;;;;;;5032723;28;20225;-75
2021/11/05 04:27:07;;;;;;;;;;;5.50;99.90;;;;;;5029177;28;20327;-76
2021/11/05 04:29:35;;;;;;;;;;;5.50;99.90;;;;;;5032997;28;19913;-76
2021/11/05 04:32:02;;;;;;;;;;;5.40;99.90;;;;;;5040479;28;19913;-76
2021/11/05 04:34:28;;;;;;;;;;;5.40;99.90;;;;;;5033702;28;19921;-76
2021/11/05 04:36:54;;;;;;;;;;;5.30;99.90;;;;;;5035364;28;19937;-76
2021/11/05 04:39:21;;;;;;;;;;;5.30;99.90;;;;;;5046921;28;20224;-75
2021/11/05 04:41:47;;;;;;;;;;;5.30;99.90;;;;;;5047950;28;20235;-76
2021/11/05 04:44:14;;;;;;;;;;;5.20;99.90;;;;;;5048567;28;20007;-76
2021/11/05 04:46:40;;;;;;;;;;;5.20;99.90;;;;;;5032095;28;20010;-76
2021/11/05 04:49:05;;;;;;;;;;;5.20;99.90;;;;;;5041862;28;19957;-75
2021/11/05 04:51:31;;;;;;;;;;;5.20;99.90;;;;;;5030161;28;20303;-75
2021/11/05 04:53:56;;;;;;;;;;;5.20;99.90;;;;;;5031482;28;19928;-76
2021/11/05 04:56:22;;;;;;;;;;;5.10;99.90;;;;;;5031426;28;19917;-75
2021/11/05 04:58:49;;;;;;;;;;;5.10;99.90;;;;;;5033438;28;19923;-76
2021/11/05 05:01:15;;;;;;;;;;;5.10;99.90;;;;;;5030430;28;21236;-75
2021/11/05 05:03:40;;;;;;;;;;;5.10;99.90;;;;;;5033076;28;19917;-76
2021/11/05 05:06:06;;;;;;;;;;;5.10;99.90;;;;;;5033225;28;19963;-75
2021/11/05 05:08:32;;;;;;;;;;;5.10;99.90;;;;;;5032521;28;19917;-76
2021/11/05 05:10:57;;;;;;;;;;;5.10;99.90;;;;;;5028681;28;19913;-75
2021/11/05 05:13:23;;;;;;;;;;;5.10;99.90;;;;;;5034733;28;19971;-76
2021/11/05 05:15:49;;;;;;;;;;;5.10;99.90;;;;;;5046358;28;19927;-76
2021/11/05 05:18:15;;;;;;;;;;;5.10;99.90;;;;;;5034979;28;19917;-76
2021/11/05 05:20:42;;;;;;;;;;;5.10;99.90;;;;;;5046998;28;19921;-75
2021/11/05 05:23:09;;;;;;;;;;;5.00;99.90;;;;;;5033894;28;19913;-75
2021/11/05 05:25:34;;;;;;;;;;;5.00;99.90;;;;;;5028391;28;19959;-75
2021/11/05 05:28:00;;;;;;;;;;;5.00;99.90;;;;;;5032896;28;19921;-75
2021/11/05 05:30:25;;;;;;;;;;;5.00;99.90;;;;;;5031282;28;20381;-74
2021/11/05 05:32:51;;;;;;;;;;;5.00;99.90;;;;;;5030903;28;19921;-75
2021/11/05 05:35:18;;;;;;;;;;;5.00;99.90;;;;;;5034073;28;20056;-75
2021/11/05 05:37:44;;;;;;;;;;;5.00;99.90;;;;;;5032071;28;19917;-75
2021/11/05 05:40:10;;;;;;;;;;;5.00;99.90;;;;;;5031381;28;20219;-75
2021/11/05 05:42:36;;;;;;;;;;;5.00;99.90;;;;;;5034081;28;19921;-75
2021/11/05 05:45:02;;;;;;;;;;;5.10;99.90;;;;;;5030798;28;19922;-75
2021/11/05 05:47:27;;;;;;;;;;;5.10;99.90;;;;;;5033285;28;19913;-76
2021/11/05 05:49:53;;;;;;;;;;;5.00;99.90;;;;;;5033763;28;19996;-76
2021/11/05 05:52:19;;;;;;;;;;;5.10;99.90;;;;;;5029698;28;19923;-75
2021/11/05 05:54:44;;;;;;;;;;;5.10;99.90;;;;;;5047029;28;19917;-75
2021/11/05 05:57:10;;;;;;;;;;;5.10;99.90;;;;;;5030932;28;19913;-75
2021/11/05 05:59:36;;;;;;;;;;;5.20;99.90;;;;;;5032740;28;19921;-75
2021/11/05 06:02:01;;;;;;;;;;;5.20;99.90;;;;;;5032790;28;20208;-76
2021/11/05 06:04:27;;;;;;;;;;;5.30;99.90;;;;;;5032569;28;19918;-75
2021/11/05 06:06:53;;;;;;;;;;;5.30;99.90;;;;;;5029048;28;19921;-76
2021/11/05 06:09:19;;;;;;;;;;;5.40;99.90;;;;;;5027942;28;19948;-76
2021/11/05 06:11:44;;;;;;;;;;;5.40;99.90;;;;;;5033044;28;19967;-75
2021/11/05 06:14:10;;;;;;;;;;;5.40;99.90;;;;;;5032231;28;19953;-75
2021/11/05 06:16:36;;;;;;;;;;;5.50;99.90;;;;;;5030389;28;19917;-75
2021/11/05 06:19:02;;;;;;;;;;;5.50;99.90;;;;;;5032674;28;19917;-75
2021/11/05 06:21:28;;;;;;;;;;;5.50;99.90;;;;;;5032537;28;19917;-75
2021/11/05 06:23:54;;;;;;;;;;;5.40;99.90;;;;;;5031846;28;20260;-75
2021/11/05 06:26:19;;;;;;;;;;;5.40;99.90;;;;;;5028089;28;20032;-75
2021/11/05 06:28:45;;;;;;;;;;;5.40;99.90;;;;;;5048710;28;20004;-76
2021/11/05 06:31:11;;;;;;;;;;;5.40;99.90;;;;;;5032574;28;19975;-76
2021/11/05 06:33:36;;;;;;;;;;;5.40;99.90;;;;;;5027172;28;20033;-75
2021/11/05 06:36:02;;;;;;;;;;;5.40;99.90;;;;;;5039829;28;20312;-75
2021/11/05 06:38:27;;;;;;;;;;;5.30;99.90;;;;;;5046966;28;19913;-75
2021/11/05 06:40:53;;;;;;;;;;;5.30;99.90;;;;;;5030652;28;19948;-75
2021/11/05 06:43:19;;;;;;;;;;;5.40;99.90;;;;;;5030272;28;19935;-75
2021/11/05 06:45:44;;;;;;;;;;;5.40;99.90;;;;;;5044014;28;19920;-75
2021/11/05 06:48:11;;;;;;;;;;;5.30;99.90;;;;;;5028898;28;20545;-75
2021/11/05 06:50:38;;;;;;;;;;;5.30;99.90;;;;;;5025784;28;20055;-75
2021/11/05 06:53:03;;;;;;;;;;;5.30;99.90;;;;;;5030141;28;20300;-75
2021/11/05 06:55:29;;;;;;;;;;;5.30;99.90;;;;;;5030314;28;19913;-75
2021/11/05 06:57:55;;;;;;;;;;;5.40;99.90;;;;;;5030686;28;20002;-75
2021/11/05 07:00:21;;;;;;;;;;;5.40;99.90;;;;;;5028975;28;20527;-75
2021/11/05 07:02:46;;;;;;;;;;;5.40;99.90;;;;;;5030653;28;19917;-76
2021/11/05 07:05:13;;;;;;;;;;;5.40;99.90;;;;;;5029649;28;20039;-75
2021/11/05 07:07:39;;;;;;;;;;;5.50;99.90;;;;;;5048414;28;20019;-75
2021/11/05 07:10:05;;;;;;;;;;;5.40;99.90;;;;;;5039226;28;20236;-75
2021/11/05 07:12:31;;;;;;;;;;;5.50;99.90;;;;;;5033370;28;19924;-76
2021/11/05 07:14:57;;;;;;;;;;;5.50;99.90;;;;;;5034302;28;19920;-75
2021/11/05 07:17:22;;;;;;;;;;;5.50;99.90;;;;;;5049051;28;19972;-75
2021/11/05 07:19:48;;;;;;;;;;;5.60;99.90;;;;;;5048815;28;19952;-75
2021/11/05 07:22:13;;;;;;;;;;;5.70;99.90;;;;;;5049189;28;20312;-75
2021/11/05 07:24:39;;;;;;;;;;;5.90;99.90;;;;;;5034706;28;19967;-75
2021/11/05 07:27:05;;;;;;;;;;;6.10;99.90;;;;;;5033144;28;19921;-75
2021/11/05 07:29:31;;;;;;;;;;;6.30;99.90;;;;;;5034721;28;19921;-75
2021/11/05 07:32:02;;;;;;;;;;;6.50;99.90;;;;;;5034725;28;19917;-76
2021/11/05 07:34:30;;;;;;;;;;;6.70;99.90;;;;;;5049657;28;20232;-76
2021/11/05 07:36:57;;;;;;;;;;;6.80;99.90;;;;;;5062149;28;19924;-75
2021/11/05 07:39:22;;;;;;;;;;;6.80;99.90;;;;;;5033889;28;19975;-75
2021/11/05 07:41:48;;;;;;;;;;;6.80;99.90;;;;;;5035777;28;19917;-75
2021/11/05 07:44:13;;;;;;;;;;;6.80;99.90;;;;;;5034273;28;19913;-75
2021/11/05 07:46:41;;;;;;;;;;;6.80;99.90;;;;;;5034109;28;20224;-75
2021/11/05 07:49:07;;;;;;;;;;;6.90;99.90;;;;;;5032832;28;19921;-75
2021/11/05 07:51:33;;;;;;;;;;;7.00;99.90;;;;;;5031508;28;19917;-75
2021/11/05 07:53:59;;;;;;;;;;;6.90;99.90;;;;;;5034728;28;20267;-76
2021/11/05 07:56:24;;;;;;;;;;;6.90;99.90;;;;;;5032375;28;19921;-77
2021/11/05 07:58:50;;;;;;;;;;;7.00;99.90;;;;;;5032392;28;19913;-76
2021/11/05 08:01:15;;;;;;;;;;;7.10;99.90;;;;;;5031981;28;19967;-75
2021/11/05 08:03:41;;;;;;;;;;;7.20;99.90;;;;;;5050372;28;19917;-76
2021/11/05 08:06:07;;;;;;;;;;;7.40;99.90;;;;;;5033280;28;19939;-76
2021/11/05 08:08:33;;;;;;;;;;;7.50;99.90;;;;;;5033755;28;19952;-76
2021/11/05 08:10:59;;;;;;;;;;;7.60;99.90;;;;;;5037525;28;20309;-76
2021/11/05 08:13:25;;;;;;;;;;;7.60;99.90;;;;;;5030330;28;19917;-76
2021/11/05 08:15:50;;;;;;;;;;;7.60;99.90;;;;;;5035144;28;19921;-76
2021/11/05 08:18:16;;;;;;;;;;;7.60;99.90;;;;;;5033907;28;19917;-76
2021/11/05 08:20:42;;;;;;;;;;;7.60;99.90;;;;;;5030906;28;19968;-76
2021/11/05 08:23:09;;;;;;;;;;;7.70;99.90;;;;;;5030743;28;19924;-76
2021/11/05 08:25:34;;;;;;;;;;;7.60;99.90;;;;;;5032356;28;19921;-76
2021/11/05 08:28:00;;;;;;;;;;;7.60;99.90;;;;;;5034211;28;20221;-77
2021/11/05 08:30:26;;;;;;;;;;;7.70;99.90;;;;;;5034871;28;19924;-76
2021/11/05 08:32:53;;;;;;;;;;;7.70;99.90;;;;;;5050460;28;19928;-77
2021/11/05 08:35:19;;;;;;;;;;;7.70;99.90;;;;;;5050006;28;19956;-76
2021/11/05 08:37:45;;;;;;;;;;;7.90;99.90;;;;;;5038929;28;19932;-77
2021/11/05 08:40:11;;;;;;;;;;;7.90;99.90;;;;;;5047600;28;19917;-76
2021/11/05 08:42:37;;;;;;;;;;;8.10;99.90;;;;;;5032560;28;19917;-77
2021/11/05 08:45:03;;;;;;;;;;;8.20;99.90;;;;;;5032296;28;20320;-77
2021/11/05 08:47:29;;;;;;;;;;;8.40;99.90;;;;;;5058885;28;19927;-77
2021/11/05 08:49:55;;;;;;;;;;;8.50;99.90;;;;;;5033319;28;20232;-77
2021/11/05 08:52:21;;;;;;;;;;;8.60;99.90;;;;;;5033139;28;19920;-77
2021/11/05 08:54:46;;;;;;;;;;;8.70;99.90;;;;;;5031227;28;20635;-77
2021/11/05 08:57:12;;;;;;;;;;;8.90;99.90;;;;;;5033259;28;19918;-77
2021/11/05 08:59:38;;;;;;;;;;;8.90;99.90;;;;;;5032082;28;19967;-77
2021/11/05 09:02:04;;;;;;;;;;;9.00;99.90;;;;;;5034156;28;19967;-77
2021/11/05 09:04:29;;;;;;;;;;;9.20;99.90;;;;;;5032123;28;19922;-77
2021/11/05 09:06:55;;;;;;;;;;;9.20;99.90;;;;;;5033941;28;19984;-77
2021/11/05 09:09:22;;;;;;;;;;;9.40;99.90;;;;;;5047153;28;19921;-77
2021/11/05 09:11:49;;;;;;;;;;;9.50;99.90;;;;;;5032970;28;20312;-76
2021/11/05 09:14:15;;;;;;;;;;;9.50;99.90;;;;;;5030856;28;19921;-77
2021/11/05 09:16:41;;;;;;;;;;;9.70;99.90;;;;;;5033025;28;20259;-78
2021/11/05 09:19:07;;;;;;;;;;;9.70;99.90;;;;;;5039563;28;19921;-78
2021/11/05 09:21:34;;;;;;;;;;;9.80;99.90;;;;;;5034245;28;20204;-77
2021/11/05 09:24:01;;;;;;;;;;;10.00;99.90;;;;;;5031988;28;20520;-77
2021/11/05 09:26:26;;;;;;;;;;;10.10;99.90;;;;;;5031242;28;19956;-77
2021/11/05 09:28:52;;;;;;;;;;;10.20;99.90;;;;;;5032018;28;19921;-77
2021/11/05 09:31:18;;;;;;;;;;;10.30;99.90;;;;;;5034301;28;20188;-75
2021/11/05 09:33:44;;;;;;;;;;;10.30;99.90;;;;;;5033358;28;19917;-75
2021/11/05 09:36:09;;;;;;;;;;;10.40;99.90;;;;;;5034175;28;19919;-76
2021/11/05 09:38:35;;;;;;;;;;;10.50;99.90;;;;;;5033951;28;19924;-77
2021/11/05 09:41:00;;;;;;;;;;;10.70;99.90;;;;;;5032962;28;19925;-75
2021/11/05 09:43:26;;;;;;;;;;;10.80;99.90;;;;;;5029762;28;19925;-76
2021/11/05 09:45:52;;;;;;;;;;;10.90;99.90;;;;;;5030597;28;19921;-75
2021/11/05 09:48:19;;;;;;;;;;;10.90;99.90;;;;;;5031723;28;19919;-75
2021/11/05 09:50:44;;;;;;;;;;;11.00;99.90;;;;;;5031282;28;19913;-76
2021/11/05 09:53:10;;;;;;;;;;;11.00;99.90;;;;;;5063388;28;20374;-76
2021/11/05 09:55:41;;;;;;;;;;;10.90;99.90;;;;;;5030088;28;19947;-75
2021/11/05 09:58:07;;;;;;;;;;;10.90;99.90;;;;;;5031378;28;20296;-75
2021/11/05 10:00:32;;;;;;;;;;;10.90;99.90;;;;;;5031337;28;20024;-76
2021/11/05 10:02:58;;;;;;;;;;;11.00;99.90;;;;;;5029447;28;19920;-75
2021/11/05 10:05:23;;;;;;;;;;;11.10;99.90;;;;;;5030631;28;20270;-75
2021/11/05 10:07:49;;;;;;;;;;;11.30;99.90;;;;;;5031791;28;19920;-75
2021/11/05 10:10:15;;;;;;;;;;;11.40;99.90;;;;;;5032528;28;19913;-78
2021/11/05 10:12:51;;;;;;;;;;;11.50;99.90;;;;;;5031408;28;19917;-76
2021/11/05 10:15:17;;;;;;;;;;;11.70;99.90;;;;;;5045749;28;19917;-77
2021/11/05 10:17:43;;;;;;;;;;;11.50;99.90;;;;;;5046149;28;20395;-77
2021/11/05 10:20:10;;;;;;;;;;;11.40;99.90;;;;;;5033083;28;20003;-77
2021/11/05 10:22:47;;;;;;;;;;;11.30;99.90;;;;;;5033825;28;19917;-78
2021/11/05 10:25:24;;;;;;;;;;;11.20;99.90;;;;;;5029280;28;19917;-80
2021/11/05 10:28:16;;;;;;;;;;;11.10;99.90;;;;;;5058732;28;20000;-79
2021/11/05 10:30:42;;;;;;;;;;;11.10;99.90;;;;;;5029883;28;20323;-79
2021/11/05 10:33:08;;;;;;;;;;;10.90;99.90;;;;;;5032120;28;19944;-78
2021/11/05 10:35:36;;;;;;;;;;;10.90;99.90;;;;;;5047996;28;19913;-77
2021/11/05 10:38:05;;;;;;;;;;;10.90;99.90;;;;;;5038673;28;19917;-77
2021/11/05 10:40:36;;;;;;;;;;;11.00;99.90;;;;;;5029804;28;19918;-78
2021/11/05 10:43:03;;;;;;;;;;;10.90;99.90;;;;;;5048266;28;20544;-78
2021/11/05 10:45:29;;;;;;;;;;;10.60;99.90;;;;;;5033068;28;19964;-76
2021/11/05 10:47:55;;;;;;;;;;;10.30;99.90;;;;;;5035959;28;19913;-79
2021/11/05 10:50:37;;;;;;;;;;;10.10;99.90;;;;;;5035329;28;19917;-77
2021/11/05 10:53:03;;;;;;;;;;;10.00;99.90;;;;;;5061208;28;19932;-75
2021/11/05 10:55:46;;;;;;;;;;;9.80;99.90;;;;;;5034540;28;20301;-76
2021/11/05 10:58:16;;;;;;;;;;;9.80;99.90;;;;;;5062848;28;20510;-76
2021/11/05 11:00:42;;;;;;;;;;;9.80;99.90;;;;;;5031633;28;20570;-77
2021/11/05 11:03:25;;;;;;;;;;;9.80;99.90;;;;;;5028783;28;19921;-77
2021/11/05 11:05:51;;;;;;;;;;;9.80;99.90;;;;;;5052634;28;19968;-77
2021/11/05 11:08:21;;;;;;;;;;;9.80;99.90;;;;;;5036016;28;19921;-77
2021/11/05 11:10:49;;;;;;;;;;;9.80;99.90;;;;;;5031850;28;19916;-77
2021/11/05 11:13:32;;;;;;;;;;;9.90;99.90;;;;;;5034029;28;19959;-76
2021/11/05 11:15:58;;;;;;;;;;;10.00;99.90;;;;;;5032755;28;19917;-78
2021/11/05 11:18:24;;;;;;;;;;;10.10;99.90;;;;;;5032344;28;19971;-78
2021/11/05 11:20:49;;;;;;;;;;;10.30;99.90;;;;;;5032837;28;19925;-77
2021/11/05 11:23:15;;;;;;;;;;;10.40;99.90;;;;;;5035789;28;20319;-76
2021/11/05 11:25:41;;;;;;;;;;;10.60;99.90;;;;;;5033618;28;19917;-77
2021/11/05 11:28:07;;;;;;;;;;;10.70;99.90;;;;;;5035679;28;20276;-76
2021/11/05 11:30:33;;;;;;;;;;;10.70;99.90;;;;;;5034511;28;19917;-76
2021/11/05 11:32:59;;;;;;;;;;;10.80;99.90;;;;;;5030429;28;19914;-78
2021/11/05 11:35:25;;;;;;;;;;;10.90;99.90;;;;;;5051121;28;19920;-76
2021/11/05 11:37:51;;;;;;;;;;;10.90;99.90;;;;;;5034917;28;20446;-76
2021/11/05 11:40:17;;;;;;;;;;;10.80;99.90;;;;;;5032385;28;19917;-76
2021/11/05 11:42:44;;;;;;;;;;;10.80;99.90;;;;;;5057192;28;19932;-77
2021/11/05 11:45:10;;;;;;;;;;;10.80;99.90;;;;;;5035492;28;19913;-76
2021/11/05 11:47:46;;;;;;;;;;;10.80;99.90;;;;;;5032757;28;19952;-77
2021/11/05 11:50:24;;;;;;;;;;;10.80;99.90;;;;;;5033715;28;19932;-76
2021/11/05 11:52:57;;;;;;;;;;;10.90;99.90;;;;;;5032537;28;19920;-77
2021/11/05 11:55:23;;;;;;;;;;;10.90;99.90;;;;;;5030719;28;19917;-76
2021/11/05 11:57:49;;;;;;;;;;;10.90;99.90;;;;;;5022487;28;20418;-82
2021/11/05 12:00:24;;;;;;;;;;;11.00;99.90;;;;;;5030459;28;19909;-77
2021/11/05 12:03:09;;;;;;;;;;;11.00;99.90;;;;;;5029666;28;19925;-77
2021/11/05 12:05:37;;;;;;;;;;;11.20;99.90;;;;;;5019032;28;20255;-78
2021/11/05 12:08:17;;;;;;;;;;;11.30;99.90;;;;;;5032088;28;19917;-79
2021/11/05 12:10:46;;;;;;;;;;;11.30;99.90;;;;;;5031413;28;19917;-78
2021/11/05 12:13:30;;;;;;;;;;;11.20;99.90;;;;;;5031215;28;19917;-78
2021/11/05 12:16:27;;;;;;;;;;;11.20;99.90;;;;;;5028631;28;20347;-77
2021/11/05 12:18:57;;;;;;;;;;;11.20;99.90;;;;;;5029730;28;19921;-78
2021/11/05 12:21:30;;;;;;;;;;;11.30;99.90;;;;;;5032042;28;19924;-79
2021/11/05 12:24:19;;;;;;;;;;;11.30;99.90;;;;;;5034099;28;19917;-78
2021/11/05 12:27:05;;;;;;;;;;;11.40;99.90;;;;;;5042010;28;19922;-77
2021/11/05 12:29:34;;;;;;;;;;;11.50;99.90;;;;;;5022842;28;19921;-77
2021/11/05 12:32:00;;;;;;;;;;;11.50;99.90;;;;;;5032177;28;20323;-77
2021/11/05 12:34:27;;;;;;;;;;;11.30;99.90;;;;;;5033746;28;20015;-78
2021/11/05 12:36:55;;;;;;;;;;;11.30;99.90;;;;;;5033012;28;20316;-77
2021/11/05 12:39:34;;;;;;;;;;;11.20;99.90;;;;;;5032461;28;19921;-77
2021/11/05 12:42:06;;;;;;;;;;;11.20;99.90;;;;;;5028874;28;19967;-77
2021/11/05 12:44:52;;;;;;;;;;;11.30;99.90;;;;;;5038283;28;20202;-78
2021/11/05 12:47:38;;;;;;;;;;;11.30;99.90;;;;;;5029372;28;19955;-78
2021/11/05 12:50:04;;;;;;;;;;;11.30;99.90;;;;;;5009120;28;19924;-77
2021/11/05 12:52:30;;;;;;;;;;;11.40;99.90;;;;;;5033936;28;19925;-77
2021/11/05 12:54:59;;;;;;;;;;;11.50;99.90;;;;;;5032246;28;19909;-78
2021/11/05 12:57:29;;;;;;;;;;;11.50;99.90;;;;;;5031861;28;19923;-77
2021/11/05 12:59:56;;;;;;;;;;;11.50;99.90;;;;;;5028742;28;19952;-77
2021/11/05 13:02:25;;;;;;;;;;;11.40;99.90;;;;;;5033973;28;20389;-76
2021/11/05 13:04:52;;;;;;;;;;;11.40;99.90;;;;;;5033590;28;19917;-78
2021/11/05 13:07:18;;;;;;;;;;;11.50;99.90;;;;;;5024874;28;19913;-78
2021/11/05 13:09:45;;;;;;;;;;;11.40;99.90;;;;;;5032301;28;19935;-80
2021/11/05 13:12:12;;;;;;;;;;;11.40;99.90;;;;;;5034953;28;19919;-77
2021/11/05 13:14:40;;;;;;;;;;;11.30;99.90;;;;;;5032647;28;19917;-77
2021/11/05 13:17:41;;;;;;;;;;;11.30;99.90;;;;;;5031132;28;19917;-77
2021/11/05 13:20:09;;;;;;;;;;;11.30;99.90;;;;;;4973908;28;19914;-78
2021/11/05 13:22:36;;;;;;;;;;;11.30;99.90;;;;;;4989407;28;19918;-79
2021/11/05 13:25:10;;;;;;;;;;;11.50;99.90;;;;;;5002459;28;19914;-78
2021/11/05 13:27:37;;;;;;;;;;;11.40;99.90;;;;;;4988665;28;19989;-77
2021/11/05 13:30:03;;;;;;;;;;;11.40;99.90;;;;;;4980771;28;19918;-79
2021/11/05 13:32:29;;;;;;;;;;;11.30;99.90;;;;;;4970564;28;19963;-78
2021/11/05 13:34:56;;;;;;;;;;;11.20;99.90;;;;;;4989830;28;20270;-77
2021/11/05 13:37:31;;;;;;;;;;;11.20;99.90;;;;;;4979953;28;20399;-77
2021/11/05 13:39:58;;;;;;;;;;;11.10;99.90;;;;;;5002403;28;19914;-77
2021/11/05 13:42:25;;;;;;;;;;;11.10;99.90;;;;;;4990031;28;19957;-77
2021/11/05 13:45:03;;;;;;;;;;;11.10;99.90;;;;;;4969870;28;19941;-78
2021/11/05 13:47:28;;;;;;;;;;;11.10;99.90;;;;;;4987752;28;20012;-79
2021/11/05 13:50:04;;;;;;;;;;;11.10;99.90;;;;;;5001766;28;20029;-78
2021/11/05 13:52:30;;;;;;;;;;;11.10;99.90;;;;;;4994396;28;19914;-77
2021/11/05 13:54:55;;;;;;;;;;;11.00;99.90;;;;;;4993944;28;19920;-77
2021/11/05 13:57:22;;;;;;;;;;;11.00;99.90;;;;;;5035232;28;20020;-77
2021/11/05 13:59:49;;;;;;;;;;;10.90;99.90;;;;;;5026913;28;19932;-77
2021/11/05 14:02:15;;;;;;;;;;;10.90;99.90;;;;;;5028443;28;19925;-76
2021/11/05 14:04:41;;;;;;;;;;;10.90;99.90;;;;;;5031063;28;19963;-77
2021/11/05 14:07:11;;;;;;;;;;;10.90;99.90;;;;;;5044382;28;20227;-77
2021/11/05 14:09:37;;;;;;;;;;;11.00;99.90;;;;;;5058769;28;19913;-77
2021/11/05 14:12:04;;;;;;;;;;;11.00;99.90;;;;;;5029372;28;19924;-77
2021/11/05 14:14:34;;;;;;;;;;;11.00;99.90;;;;;;5030786;28;19917;-77
2021/11/05 14:17:02;;;;;;;;;;;10.90;99.90;;;;;;5029392;28;19913;-77
2021/11/05 14:19:28;;;;;;;;;;;10.90;99.90;;;;;;5024227;28;19943;-76
2021/11/05 14:21:59;;;;;;;;;;;10.90;99.90;;;;;;5027655;28;19925;-76
2021/11/05 14:24:25;;;;;;;;;;;10.80;99.90;;;;;;5025314;28;19921;-76
2021/11/05 14:27:05;;;;;;;;;;;10.80;99.90;;;;;;5037947;28;19913;-78